Terminal Aerodrome Forecast
Issued by NWS Memphis, TN

Home | Current Version | Previous Version | Text Only | Print | Product List | Glossary On
Versions: 1 2 3 4 5 6 7 8 9 10 11 12 13 14 15 16 17 18 19 20 21 22 23
000
FTUS44 KMEG 050612 AAA
TAFJBR
TAF AMD
KJBR 050612Z 0506/0606 03015G23KT 1SM -SN BR OVC008
      TEMPO 0506/0509 1/2SM SN FZFG OVC003
     FM051200 02011KT 3SM -SN BR OVC010
     FM051400 01010G15KT P6SM -SN OVC025
     FM051800 36010KT P6SM OVC050
     FM060200 VRB03KT P6SM SKC=

USA.gov is the U.S. government's official web portal to all federal, state and local government web resources and services.